sensor_id;sensor_type;location;lat;lon;timestamp;temperature;humidity
2497;DHT22;1259;48.306;14.374;2022-11-25T00:00:53;4.20;99.90
2497;DHT22;1259;48.306;14.374;2022-11-25T00:03:20;4.20;99.90
2497;DHT22;1259;48.306;14.374;2022-11-25T00:05:47;4.20;99.90
2497;DHT22;1259;48.306;14.374;2022-11-25T00:08:13;4.20;99.90
2497;DHT22;1259;48.306;14.374;2022-11-25T00:10:42;4.20;99.90
2497;DHT22;1259;48.306;14.374;2022-11-25T00:13:08;4.10;99.90
2497;DHT22;1259;48.306;14.374;2022-11-25T00:15:35;4.10;99.90
2497;DHT22;1259;48.306;14.374;2022-11-25T00:18:02;4.10;99.90
2497;DHT22;1259;48.306;14.374;2022-11-25T00:20:29;4.10;99.90
2497;DHT22;1259;48.306;14.374;2022-11-25T00:22:56;4.10;99.90
2497;DHT22;1259;48.306;14.374;2022-11-25T00:25:23;4.10;99.90
2497;DHT22;1259;48.306;14.374;2022-11-25T00:27:52;4.10;99.90
2497;DHT22;1259;48.306;14.374;2022-11-25T00:30:19;4.20;99.90
2497;DHT22;1259;48.306;14.374;2022-11-25T00:32:46;4.20;99.90
2497;DHT22;1259;48.306;14.374;2022-11-25T00:35:13;4.20;99.90
2497;DHT22;1259;48.306;14.374;2022-11-25T00:37:40;4.20;99.90
2497;DHT22;1259;48.306;14.374;2022-11-25T00:40:08;4.20;99.90
2497;DHT22;1259;48.306;14.374;2022-11-25T00:42:35;4.30;99.90
2497;DHT22;1259;48.306;14.374;2022-11-25T00:45:20;4.30;99.90
2497;DHT22;1259;48.306;14.374;2022-11-25T00:47:47;4.30;99.90
2497;DHT22;1259;48.306;14.374;2022-11-25T00:50:14;4.30;99.90
2497;DHT22;1259;48.306;14.374;2022-11-25T00:52:41;4.30;99.90
2497;DHT22;1259;48.306;14.374;2022-11-25T00:55:08;4.40;99.90
2497;DHT22;1259;48.306;14.374;2022-11-25T00:57:35;4.40;99.90
2497;DHT22;1259;48.306;14.374;2022-11-25T01:00:03;4.50;99.90
2497;DHT22;1259;48.306;14.374;2022-11-25T01:02:31;4.50;99.90
2497;DHT22;1259;48.306;14.374;2022-11-25T01:04:58;4.50;99.90
2497;DHT22;1259;48.306;14.374;2022-11-25T01:07:25;4.50;99.90
2497;DHT22;1259;48.306;14.374;2022-11-25T01:09:52;4.50;99.90
2497;DHT22;1259;48.306;14.374;2022-11-25T01:12:19;4.40;99.90
2497;DHT22;1259;48.306;14.374;2022-11-25T01:14:46;4.40;99.90
2497;DHT22;1259;48.306;14.374;2022-11-25T01:17:13;4.40;99.90
2497;DHT22;1259;48.306;14.374;2022-11-25T01:19:42;4.40;99.90
2497;DHT22;1259;48.306;14.374;2022-11-25T01:22:09;4.30;99.90
2497;DHT22;1259;48.306;14.374;2022-11-25T01:24:36;4.30;99.90
2497;DHT22;1259;48.306;14.374;2022-11-25T01:27:03;4.30;99.90
2497;DHT22;1259;48.306;14.374;2022-11-25T01:29:29;4.40;99.90
2497;DHT22;1259;48.306;14.374;2022-11-25T01:31:56;4.40;99.90
2497;DHT22;1259;48.306;14.374;2022-11-25T01:34:25;4.50;99.90
2497;DHT22;1259;48.306;14.374;2022-11-25T01:36:54;4.50;99.90
2497;DHT22;1259;48.306;14.374;2022-11-25T01:39:22;4.40;99.90
2497;DHT22;1259;48.306;14.374;2022-11-25T01:41:50;4.40;99.90
2497;DHT22;1259;48.306;14.374;2022-11-25T01:44:18;4.40;99.90
2497;DHT22;1259;48.306;14.374;2022-11-25T01:46:57;4.30;99.90
2497;DHT22;1259;48.306;14.374;2022-11-25T01:49:29;4.20;99.90
2497;DHT22;1259;48.306;14.374;2022-11-25T01:52:04;4.20;99.90
2497;DHT22;1259;48.306;14.374;2022-11-25T01:54:34;4.20;99.90
2497;DHT22;1259;48.306;14.374;2022-11-25T01:57:06;4.20;99.90
2497;DHT22;1259;48.306;14.374;2022-11-25T01:59:36;4.00;99.90
2497;DHT22;1259;48.306;14.374;2022-11-25T02:02:04;4.00;99.90
2497;DHT22;1259;48.306;14.374;2022-11-25T02:04:32;4.00;99.90
2497;DHT22;1259;48.306;14.374;2022-11-25T02:07:06;4.00;99.90
2497;DHT22;1259;48.306;14.374;2022-11-25T02:09:37;4.00;99.90
2497;DHT22;1259;48.306;14.374;2022-11-25T02:12:05;4.00;99.90
2497;DHT22;1259;48.306;14.374;2022-11-25T02:14:33;3.90;99.90
2497;DHT22;1259;48.306;14.374;2022-11-25T02:17:00;4.00;99.90
2497;DHT22;1259;48.306;14.374;2022-11-25T02:19:35;4.00;99.90
2497;DHT22;1259;48.306;14.374;2022-11-25T02:22:06;4.00;99.90
2497;DHT22;1259;48.306;14.374;2022-11-25T02:24:40;4.00;99.90
2497;DHT22;1259;48.306;14.374;2022-11-25T02:27:10;4.10;99.90
2497;DHT22;1259;48.306;14.374;2022-11-25T02:29:37;4.10;99.90
2497;DHT22;1259;48.306;14.374;2022-11-25T02:32:05;3.90;99.90
2497;DHT22;1259;48.306;14.374;2022-11-25T02:34:31;4.00;99.90
2497;DHT22;1259;48.306;14.374;2022-11-25T02:36:59;4.00;99.90
2497;DHT22;1259;48.306;14.374;2022-11-25T02:39:26;4.10;99.90
2497;DHT22;1259;48.306;14.374;2022-11-25T02:41:56;4.00;99.90
2497;DHT22;1259;48.306;14.374;2022-11-25T02:44:26;4.00;99.90
2497;DHT22;1259;48.306;14.374;2022-11-25T02:46:52;3.90;99.90
2497;DHT22;1259;48.306;14.374;2022-11-25T02:49:19;3.90;99.90
2497;DHT22;1259;48.306;14.374;2022-11-25T02:51:47;4.00;99.90
2497;DHT22;1259;48.306;14.374;2022-11-25T02:54:15;3.90;99.90
2497;DHT22;1259;48.306;14.374;2022-11-25T02:56:42;3.90;99.90
2497;DHT22;1259;48.306;14.374;2022-11-25T02:59:10;4.00;99.90
2497;DHT22;1259;48.306;14.374;2022-11-25T03:01:38;4.00;99.90
2497;DHT22;1259;48.306;14.374;2022-11-25T03:08:08;4.00;99.90
2497;DHT22;1259;48.306;14.374;2022-11-25T03:10:35;3.90;99.90
2497;DHT22;1259;48.306;14.374;2022-11-25T03:13:03;3.90;99.90
2497;DHT22;1259;48.306;14.374;2022-11-25T03:15:30;3.90;99.90
2497;DHT22;1259;48.306;14.374;2022-11-25T03:17:59;3.90;99.90
2497;DHT22;1259;48.306;14.374;2022-11-25T03:20:26;3.90;99.90
2497;DHT22;1259;48.306;14.374;2022-11-25T03:22:53;3.80;99.90
2497;DHT22;1259;48.306;14.374;2022-11-25T03:25:20;3.80;99.90
2497;DHT22;1259;48.306;14.374;2022-11-25T03:27:47;3.90;99.90
2497;DHT22;1259;48.306;14.374;2022-11-25T03:30:16;3.80;99.90
2497;DHT22;1259;48.306;14.374;2022-11-25T03:32:44;3.80;99.90
2497;DHT22;1259;48.306;14.374;2022-11-25T03:35:13;3.80;99.90
2497;DHT22;1259;48.306;14.374;2022-11-25T03:37:40;3.80;99.90
2497;DHT22;1259;48.306;14.374;2022-11-25T03:40:09;3.80;99.90
2497;DHT22;1259;48.306;14.374;2022-11-25T03:42:36;3.70;99.90
2497;DHT22;1259;48.306;14.374;2022-11-25T03:45:04;3.80;99.90
2497;DHT22;1259;48.306;14.374;2022-11-25T03:47:32;3.80;99.90
2497;DHT22;1259;48.306;14.374;2022-11-25T03:49:58;3.80;99.90
2497;DHT22;1259;48.306;14.374;2022-11-25T03:52:27;3.80;99.90
2497;DHT22;1259;48.306;14.374;2022-11-25T03:54:54;3.70;99.90
2497;DHT22;1259;48.306;14.374;2022-11-25T03:57:21;3.70;99.90
2497;DHT22;1259;48.306;14.374;2022-11-25T03:59:47;3.70;99.90
2497;DHT22;1259;48.306;14.374;2022-11-25T04:02:14;3.70;99.90
2497;DHT22;1259;48.306;14.374;2022-11-25T04:04:41;3.70;99.90
2497;DHT22;1259;48.306;14.374;2022-11-25T04:07:08;3.70;99.90
2497;DHT22;1259;48.306;14.374;2022-11-25T04:09:37;3.60;99.90
2497;DHT22;1259;48.306;14.374;2022-11-25T04:12:04;3.60;99.90
2497;DHT22;1259;48.306;14.374;2022-11-25T04:14:49;3.60;99.90
2497;DHT22;1259;48.306;14.374;2022-11-25T04:17:16;3.50;99.90
2497;DHT22;1259;48.306;14.374;2022-11-25T04:19:43;3.50;99.90
2497;DHT22;1259;48.306;14.374;2022-11-25T04:22:10;3.40;99.90
2497;DHT22;1259;48.306;14.374;2022-11-25T04:24:38;3.40;99.90
2497;DHT22;1259;48.306;14.374;2022-11-25T04:27:05;3.40;99.90
2497;DHT22;1259;48.306;14.374;2022-11-25T04:29:32;3.30;99.90
2497;DHT22;1259;48.306;14.374;2022-11-25T04:31:59;3.30;99.90
2497;DHT22;1259;48.306;14.374;2022-11-25T04:34:26;3.30;99.90
2497;DHT22;1259;48.306;14.374;2022-11-25T04:36:52;3.30;99.90
2497;DHT22;1259;48.306;14.374;2022-11-25T04:39:19;3.10;99.90
2497;DHT22;1259;48.306;14.374;2022-11-25T04:41:48;3.10;99.90
2497;DHT22;1259;48.306;14.374;2022-11-25T04:44:15;3.20;99.90
2497;DHT22;1259;48.306;14.374;2022-11-25T04:46:42;3.20;99.90
2497;DHT22;1259;48.306;14.374;2022-11-25T04:49:10;3.10;99.90
2497;DHT22;1259;48.306;14.374;2022-11-25T04:51:37;3.10;99.90
2497;DHT22;1259;48.306;14.374;2022-11-25T04:54:04;3.10;99.90
2497;DHT22;1259;48.306;14.374;2022-11-25T04:56:31;3.20;99.90
2497;DHT22;1259;48.306;14.374;2022-11-25T04:58:59;3.10;99.90
2497;DHT22;1259;48.306;14.374;2022-11-25T05:01:43;3.10;99.90
2497;DHT22;1259;48.306;14.374;2022-11-25T05:04:10;3.10;99.90
2497;DHT22;1259;48.306;14.374;2022-11-25T05:06:37;3.00;99.90
2497;DHT22;1259;48.306;14.374;2022-11-25T05:09:04;3.00;99.90
2497;DHT22;1259;48.306;14.374;2022-11-25T05:11:31;3.00;99.90
2497;DHT22;1259;48.306;14.374;2022-11-25T05:13:59;2.90;99.90
2497;DHT22;1259;48.306;14.374;2022-11-25T05:16:26;3.00;99.90
2497;DHT22;1259;48.306;14.374;2022-11-25T05:18:54;2.90;99.90
2497;DHT22;1259;48.306;14.374;2022-11-25T05:21:22;2.80;99.90
2497;DHT22;1259;48.306;14.374;2022-11-25T05:23:49;2.80;99.90
2497;DHT22;1259;48.306;14.374;2022-11-25T05:26:16;2.70;99.90
2497;DHT22;1259;48.306;14.374;2022-11-25T05:28:42;2.70;99.90
2497;DHT22;1259;48.306;14.374;2022-11-25T05:31:11;2.60;99.90
2497;DHT22;1259;48.306;14.374;2022-11-25T05:33:38;2.50;99.90
2497;DHT22;1259;48.306;14.374;2022-11-25T05:36:05;2.50;99.90
2497;DHT22;1259;48.306;14.374;2022-11-25T05:38:32;2.60;99.90
2497;DHT22;1259;48.306;14.374;2022-11-25T05:41:00;2.60;99.90
2497;DHT22;1259;48.306;14.374;2022-11-25T05:43:27;2.70;99.90
2497;DHT22;1259;48.306;14.374;2022-11-25T05:45:54;2.70;99.90
2497;DHT22;1259;48.306;14.374;2022-11-25T05:48:23;2.80;99.90
2497;DHT22;1259;48.306;14.374;2022-11-25T05:50:50;2.70;99.90
2497;DHT22;1259;48.306;14.374;2022-11-25T05:53:17;2.70;99.90
2497;DHT22;1259;48.306;14.374;2022-11-25T05:55:48;2.70;99.90
2497;DHT22;1259;48.306;14.374;2022-11-25T05:58:18;2.70;99.90
2497;DHT22;1259;48.306;14.374;2022-11-25T06:00:45;2.70;99.90
2497;DHT22;1259;48.306;14.374;2022-11-25T06:03:12;2.80;99.90
2497;DHT22;1259;48.306;14.374;2022-11-25T06:05:41;2.80;99.90
2497;DHT22;1259;48.306;14.374;2022-11-25T06:08:07;2.90;99.90
2497;DHT22;1259;48.306;14.374;2022-11-25T06:10:37;2.90;99.90
2497;DHT22;1259;48.306;14.374;2022-11-25T06:13:04;2.90;99.90
2497;DHT22;1259;48.306;14.374;2022-11-25T06:15:31;2.90;99.90
2497;DHT22;1259;48.306;14.374;2022-11-25T06:17:58;2.90;99.90
2497;DHT22;1259;48.306;14.374;2022-11-25T06:20:25;2.90;99.90
2497;DHT22;1259;48.306;14.374;2022-11-25T06:22:54;2.90;99.90
2497;DHT22;1259;48.306;14.374;2022-11-25T06:25:20;2.90;99.90
2497;DHT22;1259;48.306;14.374;2022-11-25T06:27:47;2.90;99.90
2497;DHT22;1259;48.306;14.374;2022-11-25T06:30:15;2.90;99.90
2497;DHT22;1259;48.306;14.374;2022-11-25T06:32:42;2.80;99.90
2497;DHT22;1259;48.306;14.374;2022-11-25T06:35:09;2.80;99.90
2497;DHT22;1259;48.306;14.374;2022-11-25T06:56:33;2.50;99.90
2497;DHT22;1259;48.306;14.374;2022-11-25T06:59:00;2.40;99.90
2497;DHT22;1259;48.306;14.374;2022-11-25T07:01:28;2.40;99.90
2497;DHT22;1259;48.306;14.374;2022-11-25T07:03:58;2.40;99.90
2497;DHT22;1259;48.306;14.374;2022-11-25T07:06:26;2.40;99.90
2497;DHT22;1259;48.306;14.374;2022-11-25T07:08:53;2.50;99.90
2497;DHT22;1259;48.306;14.374;2022-11-25T07:11:23;2.50;99.90
2497;DHT22;1259;48.306;14.374;2022-11-25T07:13:53;2.60;99.90
2497;DHT22;1259;48.306;14.374;2022-11-25T07:30:07;2.70;99.90
2497;DHT22;1259;48.306;14.374;2022-11-25T07:32:35;3.20;99.90
2497;DHT22;1259;48.306;14.374;2022-11-25T07:35:02;3.30;99.90
2497;DHT22;1259;48.306;14.374;2022-11-25T07:37:29;3.30;99.90
2497;DHT22;1259;48.306;14.374;2022-11-25T07:39:56;3.40;99.90
2497;DHT22;1259;48.306;14.374;2022-11-25T07:42:23;3.40;99.90
2497;DHT22;1259;48.306;14.374;2022-11-25T07:44:50;3.40;99.90
2497;DHT22;1259;48.306;14.374;2022-11-25T07:47:18;3.50;99.90
2497;DHT22;1259;48.306;14.374;2022-11-25T07:49:45;3.50;99.90
2497;DHT22;1259;48.306;14.374;2022-11-25T07:52:12;3.50;99.90
2497;DHT22;1259;48.306;14.374;2022-11-25T07:54:39;3.60;99.90
2497;DHT22;1259;48.306;14.374;2022-11-25T07:57:05;3.70;99.90
2497;DHT22;1259;48.306;14.374;2022-11-25T07:59:32;3.90;99.90
2497;DHT22;1259;48.306;14.374;2022-11-25T08:02:00;4.00;99.90
2497;DHT22;1259;48.306;14.374;2022-11-25T08:04:28;4.00;99.90
2497;DHT22;1259;48.306;14.374;2022-11-25T08:06:55;4.10;99.90
2497;DHT22;1259;48.306;14.374;2022-11-25T08:09:23;4.10;99.90
2497;DHT22;1259;48.306;14.374;2022-11-25T08:11:50;4.10;99.90
2497;DHT22;1259;48.306;14.374;2022-11-25T08:14:17;4.20;99.90
2497;DHT22;1259;48.306;14.374;2022-11-25T08:16:45;4.30;99.90
2497;DHT22;1259;48.306;14.374;2022-11-25T08:19:14;4.40;99.90
2497;DHT22;1259;48.306;14.374;2022-11-25T08:21:43;4.50;99.90
2497;DHT22;1259;48.306;14.374;2022-11-25T08:24:14;4.40;99.90
2497;DHT22;1259;48.306;14.374;2022-11-25T08:26:41;4.40;99.90
2497;DHT22;1259;48.306;14.374;2022-11-25T08:29:12;4.40;99.90
2497;DHT22;1259;48.306;14.374;2022-11-25T08:31:39;4.30;99.90
2497;DHT22;1259;48.306;14.374;2022-11-25T08:34:07;4.30;99.90
2497;DHT22;1259;48.306;14.374;2022-11-25T08:36:36;4.30;99.90
2497;DHT22;1259;48.306;14.374;2022-11-25T08:39:05;4.30;99.90
2497;DHT22;1259;48.306;14.374;2022-11-25T08:41:35;4.30;99.90
2497;DHT22;1259;48.306;14.374;2022-11-25T08:44:04;4.40;99.90
2497;DHT22;1259;48.306;14.374;2022-11-25T08:46:33;4.40;99.90
2497;DHT22;1259;48.306;14.374;2022-11-25T08:49:01;4.50;99.90
2497;DHT22;1259;48.306;14.374;2022-11-25T08:51:31;4.60;99.90
2497;DHT22;1259;48.306;14.374;2022-11-25T08:53:58;4.70;99.90
2497;DHT22;1259;48.306;14.374;2022-11-25T08:56:28;4.70;99.90
2497;DHT22;1259;48.306;14.374;2022-11-25T08:58:54;4.70;99.90
2497;DHT22;1259;48.306;14.374;2022-11-25T09:01:23;4.80;99.90
2497;DHT22;1259;48.306;14.374;2022-11-25T09:03:52;4.80;99.90
2497;DHT22;1259;48.306;14.374;2022-11-25T09:06:20;5.00;99.90
2497;DHT22;1259;48.306;14.374;2022-11-25T09:08:47;4.90;99.90
2497;DHT22;1259;48.306;14.374;2022-11-25T09:11:14;4.90;99.90
2497;DHT22;1259;48.306;14.374;2022-11-25T09:13:42;4.90;99.90
2497;DHT22;1259;48.306;14.374;2022-11-25T09:16:09;4.80;99.90
2497;DHT22;1259;48.306;14.374;2022-11-25T09:18:36;4.80;99.90
2497;DHT22;1259;48.306;14.374;2022-11-25T09:21:07;4.70;99.90
2497;DHT22;1259;48.306;14.374;2022-11-25T09:23:35;4.70;99.90
2497;DHT22;1259;48.306;14.374;2022-11-25T09:26:03;4.60;99.90
2497;DHT22;1259;48.306;14.374;2022-11-25T09:28:31;4.70;99.90
2497;DHT22;1259;48.306;14.374;2022-11-25T09:31:05;4.80;99.90
2497;DHT22;1259;48.306;14.374;2022-11-25T09:33:32;4.90;99.90
2497;DHT22;1259;48.306;14.374;2022-11-25T09:35:59;4.80;99.90
2497;DHT22;1259;48.306;14.374;2022-11-25T09:38:26;4.80;99.90
2497;DHT22;1259;48.306;14.374;2022-11-25T09:40:57;4.90;99.90
2497;DHT22;1259;48.306;14.374;2022-11-25T09:43:34;5.00;99.90
2497;DHT22;1259;48.306;14.374;2022-11-25T09:46:38;5.20;99.90
2497;DHT22;1259;48.306;14.374;2022-11-25T09:49:19;5.20;99.90
2497;DHT22;1259;48.306;14.374;2022-11-25T09:51:56;5.20;99.90
2497;DHT22;1259;48.306;14.374;2022-11-25T09:54:25;5.40;99.90
2497;DHT22;1259;48.306;14.374;2022-11-25T09:56:59;5.40;99.90
2497;DHT22;1259;48.306;14.374;2022-11-25T09:59:33;5.40;99.90
2497;DHT22;1259;48.306;14.374;2022-11-25T10:02:11;5.50;99.90
2497;DHT22;1259;48.306;14.374;2022-11-25T10:04:45;5.60;99.90
2497;DHT22;1259;48.306;14.374;2022-11-25T10:07:17;5.50;99.90
2497;DHT22;1259;48.306;14.374;2022-11-25T10:09:46;5.40;99.90
2497;DHT22;1259;48.306;14.374;2022-11-25T10:12:18;5.40;99.90
2497;DHT22;1259;48.306;14.374;2022-11-25T10:14:49;5.40;99.90
2497;DHT22;1259;48.306;14.374;2022-11-25T10:17:27;5.60;99.90
2497;DHT22;1259;48.306;14.374;2022-11-25T10:20:00;5.80;99.90
2497;DHT22;1259;48.306;14.374;2022-11-25T10:22:31;5.90;99.90
2497;DHT22;1259;48.306;14.374;2022-11-25T10:25:01;6.00;99.90
2497;DHT22;1259;48.306;14.374;2022-11-25T10:27:40;5.90;99.90
2497;DHT22;1259;48.306;14.374;2022-11-25T10:30:15;6.00;99.90
2497;DHT22;1259;48.306;14.374;2022-11-25T10:32:46;6.00;99.90
2497;DHT22;1259;48.306;14.374;2022-11-25T10:35:22;5.80;99.90
2497;DHT22;1259;48.306;14.374;2022-11-25T10:37:51;5.90;99.90
2497;DHT22;1259;48.306;14.374;2022-11-25T10:40:20;5.90;99.90
2497;DHT22;1259;48.306;14.374;2022-11-25T10:42:48;6.00;99.90
2497;DHT22;1259;48.306;14.374;2022-11-25T10:45:15;6.00;99.90
2497;DHT22;1259;48.306;14.374;2022-11-25T10:47:59;5.90;99.90
2497;DHT22;1259;48.306;14.374;2022-11-25T10:50:33;6.10;99.90
2497;DHT22;1259;48.306;14.374;2022-11-25T10:53:10;6.00;99.90
2497;DHT22;1259;48.306;14.374;2022-11-25T10:55:38;6.00;99.90
2497;DHT22;1259;48.306;14.374;2022-11-25T10:58:24;6.00;99.90
2497;DHT22;1259;48.306;14.374;2022-11-25T11:01:05;5.90;99.90
2497;DHT22;1259;48.306;14.374;2022-11-25T11:03:34;6.00;99.90
2497;DHT22;1259;48.306;14.374;2022-11-25T11:06:01;5.90;99.90
2497;DHT22;1259;48.306;14.374;2022-11-25T11:08:36;6.00;99.90
2497;DHT22;1259;48.306;14.374;2022-11-25T11:11:18;6.00;99.90
2497;DHT22;1259;48.306;14.374;2022-11-25T11:13:46;6.00;99.90
2497;DHT22;1259;48.306;14.374;2022-11-25T11:16:27;6.20;99.90
2497;DHT22;1259;48.306;14.374;2022-11-25T11:18:56;6.10;99.90
2497;DHT22;1259;48.306;14.374;2022-11-25T11:21:29;6.20;99.90
2497;DHT22;1259;48.306;14.374;2022-11-25T11:23:57;6.30;99.90
2497;DHT22;1259;48.306;14.374;2022-11-25T11:26:27;6.20;99.90
2497;DHT22;1259;48.306;14.374;2022-11-25T11:28:59;6.20;99.90
2497;DHT22;1259;48.306;14.374;2022-11-25T11:31:30;6.10;99.90
2497;DHT22;1259;48.306;14.374;2022-11-25T11:34:05;6.20;99.90
2497;DHT22;1259;48.306;14.374;2022-11-25T11:36:54;6.30;99.90
2497;DHT22;1259;48.306;14.374;2022-11-25T11:39:39;6.30;99.90
2497;DHT22;1259;48.306;14.374;2022-11-25T11:42:15;6.20;99.90
2497;DHT22;1259;48.306;14.374;2022-11-25T11:45:04;6.30;99.90
2497;DHT22;1259;48.306;14.374;2022-11-25T11:47:46;6.40;99.90
2497;DHT22;1259;48.306;14.374;2022-11-25T11:50:25;6.20;99.90
2497;DHT22;1259;48.306;14.374;2022-11-25T11:52:58;6.30;99.90
2497;DHT22;1259;48.306;14.374;2022-11-25T11:55:36;6.40;99.90
2497;DHT22;1259;48.306;14.374;2022-11-25T11:58:12;6.60;99.90
2497;DHT22;1259;48.306;14.374;2022-11-25T12:00:46;6.60;99.90
2497;DHT22;1259;48.306;14.374;2022-11-25T12:03:19;6.60;99.90
2497;DHT22;1259;48.306;14.374;2022-11-25T12:05:49;6.60;99.90
2497;DHT22;1259;48.306;14.374;2022-11-25T12:08:25;6.80;99.90
2497;DHT22;1259;48.306;14.374;2022-11-25T12:10:57;6.80;99.90
2497;DHT22;1259;48.306;14.374;2022-11-25T12:13:32;6.80;99.90
2497;DHT22;1259;48.306;14.374;2022-11-25T12:16:04;6.80;99.90
2497;DHT22;1259;48.306;14.374;2022-11-25T12:18:44;6.90;99.90
2497;DHT22;1259;48.306;14.374;2022-11-25T12:21:35;6.90;99.90
2497;DHT22;1259;48.306;14.374;2022-11-25T12:24:08;6.70;99.90
2497;DHT22;1259;48.306;14.374;2022-11-25T12:26:45;6.60;99.90
2497;DHT22;1259;48.306;14.374;2022-11-25T12:29:22;6.50;99.90
2497;DHT22;1259;48.306;14.374;2022-11-25T12:31:55;6.60;99.90
2497;DHT22;1259;48.306;14.374;2022-11-25T12:34:30;6.70;99.90
2497;DHT22;1259;48.306;14.374;2022-11-25T12:37:06;6.80;99.90
2497;DHT22;1259;48.306;14.374;2022-11-25T12:39:38;6.80;99.90
2497;DHT22;1259;48.306;14.374;2022-11-25T12:42:13;6.70;99.90
2497;DHT22;1259;48.306;14.374;2022-11-25T12:44:51;6.60;99.90
2497;DHT22;1259;48.306;14.374;2022-11-25T12:47:21;6.60;99.90
2497;DHT22;1259;48.306;14.374;2022-11-25T12:49:50;6.50;99.90
2497;DHT22;1259;48.306;14.374;2022-11-25T12:52:39;6.50;99.90
2497;DHT22;1259;48.306;14.374;2022-11-25T12:55:13;6.50;99.90
2497;DHT22;1259;48.306;14.374;2022-11-25T12:58:12;6.60;99.90
2497;DHT22;1259;48.306;14.374;2022-11-25T13:01:11;6.60;99.90
2497;DHT22;1259;48.306;14.374;2022-11-25T13:07:23;6.40;99.90
2497;DHT22;1259;48.306;14.374;2022-11-25T13:13:21;6.30;99.90
2497;DHT22;1259;48.306;14.374;2022-11-25T13:15:51;6.40;99.90
2497;DHT22;1259;48.306;14.374;2022-11-25T13:18:21;6.30;99.90
2497;DHT22;1259;48.306;14.374;2022-11-25T13:20:50;6.30;99.90
2497;DHT22;1259;48.306;14.374;2022-11-25T13:23:29;6.20;99.90
2497;DHT22;1259;48.306;14.374;2022-11-25T13:26:35;6.10;99.90
2497;DHT22;1259;48.306;14.374;2022-11-25T13:32:31;6.10;99.90
2497;DHT22;1259;48.306;14.374;2022-11-25T13:38:33;5.90;99.90
2497;DHT22;1259;48.306;14.374;2022-11-25T13:41:02;5.80;99.90
2497;DHT22;1259;48.306;14.374;2022-11-25T13:43:30;5.80;99.90
2497;DHT22;1259;48.306;14.374;2022-11-25T13:45:59;5.80;99.90
2497;DHT22;1259;48.306;14.374;2022-11-25T13:48:27;5.80;99.90
2497;DHT22;1259;48.306;14.374;2022-11-25T13:51:14;5.60;99.90
2497;DHT22;1259;48.306;14.374;2022-11-25T13:53:50;5.70;99.90
2497;DHT22;1259;48.306;14.374;2022-11-25T13:56:26;5.60;99.90
2497;DHT22;1259;48.306;14.374;2022-11-25T13:59:18;5.50;99.90
2497;DHT22;1259;48.306;14.374;2022-11-25T14:01:54;5.40;99.90
2497;DHT22;1259;48.306;14.374;2022-11-25T14:04:48;5.40;99.90
2497;DHT22;1259;48.306;14.374;2022-11-25T14:07:26;5.40;99.90
2497;DHT22;1259;48.306;14.374;2022-11-25T14:10:08;5.40;99.90
2497;DHT22;1259;48.306;14.374;2022-11-25T14:12:57;5.40;99.90
2497;DHT22;1259;48.306;14.374;2022-11-25T14:15:46;5.50;99.90
2497;DHT22;1259;48.306;14.374;2022-11-25T14:21:18;5.60;99.90
2497;DHT22;1259;48.306;14.374;2022-11-25T14:23:59;5.70;99.90
2497;DHT22;1259;48.306;14.374;2022-11-25T14:26:32;5.70;99.90
2497;DHT22;1259;48.306;14.374;2022-11-25T14:29:02;5.80;99.90
2497;DHT22;1259;48.306;14.374;2022-11-25T14:31:36;5.70;99.90
2497;DHT22;1259;48.306;14.374;2022-11-25T14:34:09;5.80;99.90
2497;DHT22;1259;48.306;14.374;2022-11-25T14:36:42;5.80;99.90
2497;DHT22;1259;48.306;14.374;2022-11-25T14:39:15;5.80;99.90
2497;DHT22;1259;48.306;14.374;2022-11-25T14:41:51;5.90;99.90
2497;DHT22;1259;48.306;14.374;2022-11-25T14:44:23;5.90;99.90
2497;DHT22;1259;48.306;14.374;2022-11-25T14:46:52;5.90;99.90
2497;DHT22;1259;48.306;14.374;2022-11-25T14:49:19;5.90;99.90
2497;DHT22;1259;48.306;14.374;2022-11-25T14:51:49;5.80;99.90
2497;DHT22;1259;48.306;14.374;2022-11-25T14:54:19;5.70;99.90
2497;DHT22;1259;48.306;14.374;2022-11-25T14:56:47;5.70;99.90
2497;DHT22;1259;48.306;14.374;2022-11-25T14:59:14;5.70;99.90
2497;DHT22;1259;48.306;14.374;2022-11-25T15:01:51;5.70;99.90
2497;DHT22;1259;48.306;14.374;2022-11-25T15:04:20;5.70;99.90
2497;DHT22;1259;48.306;14.374;2022-11-25T15:06:50;5.60;99.90
2497;DHT22;1259;48.306;14.374;2022-11-25T15:09:20;5.70;99.90
2497;DHT22;1259;48.306;14.374;2022-11-25T15:11:51;5.70;99.90
2497;DHT22;1259;48.306;14.374;2022-11-25T15:14:23;5.50;99.90
2497;DHT22;1259;48.306;14.374;2022-11-25T15:16:51;5.60;99.90
2497;DHT22;1259;48.306;14.374;2022-11-25T15:19:19;5.60;99.90
2497;DHT22;1259;48.306;14.374;2022-11-25T15:21:55;5.60;99.90
2497;DHT22;1259;48.306;14.374;2022-11-25T15:24:25;5.30;99.90
2497;DHT22;1259;48.306;14.374;2022-11-25T15:26:54;5.10;99.90
2497;DHT22;1259;48.306;14.374;2022-11-25T15:29:22;5.10;99.90
2497;DHT22;1259;48.306;14.374;2022-11-25T15:31:50;5.00;99.90
2497;DHT22;1259;48.306;14.374;2022-11-25T15:34:19;4.90;99.90
2497;DHT22;1259;48.306;14.374;2022-11-25T15:36:47;4.90;99.90
2497;DHT22;1259;48.306;14.374;2022-11-25T15:39:23;4.80;99.90
2497;DHT22;1259;48.306;14.374;2022-11-25T15:41:50;4.80;99.90
2497;DHT22;1259;48.306;14.374;2022-11-25T15:44:20;4.90;99.90
2497;DHT22;1259;48.306;14.374;2022-11-25T15:46:57;4.80;99.90
2497;DHT22;1259;48.306;14.374;2022-11-25T15:49:25;4.70;99.90
2497;DHT22;1259;48.306;14.374;2022-11-25T15:51:56;4.80;99.90
2497;DHT22;1259;48.306;14.374;2022-11-25T15:54:27;4.70;99.90
2497;DHT22;1259;48.306;14.374;2022-11-25T15:56:57;4.70;99.90
2497;DHT22;1259;48.306;14.374;2022-11-25T15:59:48;4.70;99.90
2497;DHT22;1259;48.306;14.374;2022-11-25T16:02:49;4.80;99.90
2497;DHT22;1259;48.306;14.374;2022-11-25T16:05:28;4.70;99.90
2497;DHT22;1259;48.306;14.374;2022-11-25T16:08:01;4.60;99.90
2497;DHT22;1259;48.306;14.374;2022-11-25T16:10:31;4.50;99.90
2497;DHT22;1259;48.306;14.374;2022-11-25T16:13:29;4.50;99.90
2497;DHT22;1259;48.306;14.374;2022-11-25T16:16:10;4.50;99.90
2497;DHT22;1259;48.306;14.374;2022-11-25T16:18:41;4.40;99.90
2497;DHT22;1259;48.306;14.374;2022-11-25T16:21:11;4.50;99.90
2497;DHT22;1259;48.306;14.374;2022-11-25T16:23:42;4.60;99.90
2497;DHT22;1259;48.306;14.374;2022-11-25T16:26:17;4.60;99.90
2497;DHT22;1259;48.306;14.374;2022-11-25T16:28:52;4.50;99.90
2497;DHT22;1259;48.306;14.374;2022-11-25T16:31:20;4.40;99.90
2497;DHT22;1259;48.306;14.374;2022-11-25T16:33:48;4.30;99.90
2497;DHT22;1259;48.306;14.374;2022-11-25T16:36:15;4.20;99.90
2497;DHT22;1259;48.306;14.374;2022-11-25T16:38:42;4.10;99.90
2497;DHT22;1259;48.306;14.374;2022-11-25T16:41:17;4.10;99.90
2497;DHT22;1259;48.306;14.374;2022-11-25T16:43:46;4.10;99.90
2497;DHT22;1259;48.306;14.374;2022-11-25T16:46:15;4.30;99.90
2497;DHT22;1259;48.306;14.374;2022-11-25T16:48:43;4.30;99.90
2497;DHT22;1259;48.306;14.374;2022-11-25T16:51:13;4.40;99.90
2497;DHT22;1259;48.306;14.374;2022-11-25T16:53:40;4.50;99.90
2497;DHT22;1259;48.306;14.374;2022-11-25T16:56:11;4.60;99.90
2497;DHT22;1259;48.306;14.374;2022-11-25T16:58:41;4.60;99.90
2497;DHT22;1259;48.306;14.374;2022-11-25T17:01:13;4.60;99.90
2497;DHT22;1259;48.306;14.374;2022-11-25T17:03:40;4.50;99.90
2497;DHT22;1259;48.306;14.374;2022-11-25T17:06:15;4.60;99.90
2497;DHT22;1259;48.306;14.374;2022-11-25T17:08:42;4.70;99.90
2497;DHT22;1259;48.306;14.374;2022-11-25T17:11:13;4.60;99.90
2497;DHT22;1259;48.306;14.374;2022-11-25T17:13:43;4.60;99.90
2497;DHT22;1259;48.306;14.374;2022-11-25T17:16:16;4.60;99.90
2497;DHT22;1259;48.306;14.374;2022-11-25T17:18:43;4.50;99.90